createdAt,value
2022-11-22T00:00:21.530Z,94238.00
2022-11-22T00:02:48.861Z,94239.63
2022-11-22T00:05:15.296Z,94225.19
2022-11-22T00:07:41.877Z,94230.38
2022-11-22T00:10:11.113Z,94229.91
2022-11-22T00:12:37.690Z,94221.78
2022-11-22T00:15:05.137Z,94212.06
2022-11-22T00:17:32.841Z,94212.50
2022-11-22T00:19:59.449Z,94200.72
2022-11-22T00:22:26.053Z,94206.38
2022-11-22T00:24:53.552Z,94212.91
2022-11-22T00:27:20.572Z,94227.94
2022-11-22T00:29:46.981Z,94211.47
2022-11-22T00:32:14.403Z,94202.34
2022-11-22T00:34:40.848Z,94200.03
2022-11-22T00:37:07.599Z,94212.81
2022-11-22T00:39:34.400Z,94207.44
2022-11-22T00:42:00.822Z,94204.38
2022-11-22T00:44:27.192Z,94206.56
2022-11-22T00:46:53.966Z,94204.56
2022-11-22T00:49:20.358Z,94203.78
2022-11-22T00:51:46.759Z,94205.31
2022-11-22T00:54:13.640Z,94208.75
2022-11-22T00:56:39.955Z,94219.41
2022-11-22T00:59:06.369Z,94223.41
2022-11-22T01:01:33.166Z,94229.06
2022-11-22T01:04:00.074Z,94228.44
2022-11-22T01:06:26.389Z,94232.84
2022-11-22T01:08:53.390Z,94216.69
2022-11-22T01:11:20.324Z,94202.16
2022-11-22T01:13:47.177Z,94217.31
2022-11-22T01:16:14.253Z,94220.19
2022-11-22T01:18:41.292Z,94227.28
2022-11-22T01:21:08.269Z,94229.25
2022-11-22T01:23:35.085Z,94233.50
2022-11-22T01:26:01.949Z,94227.09
2022-11-22T01:28:28.718Z,94224.81
2022-11-22T01:30:55.216Z,94217.19
2022-11-22T01:33:21.929Z,94225.41
2022-11-22T01:35:48.660Z,94225.19
2022-11-22T01:38:14.975Z,94230.78
2022-11-22T01:40:41.393Z,94233.00
2022-11-22T01:43:18.475Z,94222.88
2022-11-22T01:45:47.686Z,94231.66
2022-11-22T01:48:23.360Z,94227.69
2022-11-22T01:50:56.015Z,94233.53
2022-11-22T01:53:33.607Z,94235.75
2022-11-22T01:56:02.999Z,94240.97
2022-11-22T01:58:33.082Z,94235.50
2022-11-22T02:01:01.006Z,94238.72
2022-11-22T02:03:29.404Z,94235.28
2022-11-22T02:05:56.445Z,94234.41
2022-11-22T02:08:31.653Z,94237.81
2022-11-22T02:11:01.368Z,94236.72
2022-11-22T02:13:27.930Z,94234.91
2022-11-22T02:15:54.886Z,94223.53
2022-11-22T02:18:21.919Z,94225.44
2022-11-22T02:20:48.272Z,94235.06
2022-11-22T02:23:30.630Z,94216.09
2022-11-22T02:25:59.330Z,94229.88
2022-11-22T02:28:28.650Z,94240.97
2022-11-22T02:30:55.543Z,94241.78
2022-11-22T02:33:21.978Z,94238.72
2022-11-22T02:35:48.660Z,94255.06
2022-11-22T02:38:22.866Z,94253.16
2022-11-22T02:40:59.830Z,94258.06
2022-11-22T02:43:40.336Z,94265.72
2022-11-22T02:46:12.520Z,94261.13
2022-11-22T02:48:42.543Z,94255.06
2022-11-22T02:51:09.272Z,94257.25
2022-11-22T02:53:35.988Z,94263.09
2022-11-22T02:56:02.362Z,94260.03
2022-11-22T02:58:29.508Z,94263.97
2022-11-22T03:00:55.955Z,94265.94
2022-11-22T03:03:22.342Z,94270.00
2022-11-22T03:05:49.068Z,94275.63
2022-11-22T03:08:15.438Z,94283.66
2022-11-22T03:10:41.762Z,94273.16
2022-11-22T03:13:08.106Z,94276.38
2022-11-22T03:15:34.408Z,94274.31
2022-11-22T03:18:02.241Z,94273.09
2022-11-22T03:20:29.491Z,94279.56
2022-11-22T03:22:55.940Z,94271.31
2022-11-22T03:25:22.614Z,94272.69
2022-11-22T03:27:49.638Z,94265.47
2022-11-22T03:30:16.440Z,94274.97
2022-11-22T03:32:42.782Z,94277.84
2022-11-22T03:35:09.651Z,94271.53
2022-11-22T03:37:36.121Z,94258.41
2022-11-22T03:40:02.486Z,94263.66
2022-11-22T03:42:29.139Z,94262.72
2022-11-22T03:44:55.458Z,94266.00
2022-11-22T03:47:21.835Z,94263.59
2022-11-22T03:49:48.695Z,94267.31
2022-11-22T03:52:15.022Z,94274.59
2022-11-22T03:54:41.351Z,94278.69
2022-11-22T03:57:08.120Z,94280.50
2022-11-22T03:59:34.478Z,94273.44
2022-11-22T04:02:00.911Z,94272.22
2022-11-22T04:04:28.057Z,94267.75
2022-11-22T04:06:54.441Z,94270.47
2022-11-22T04:09:20.863Z,94265.50
2022-11-22T04:11:47.721Z,94268.75
2022-11-22T04:14:32.965Z,94264.75
2022-11-22T04:16:59.294Z,94267.44
2022-11-22T04:19:26.012Z,94258.03
2022-11-22T04:21:52.445Z,94259.06
2022-11-22T04:24:37.538Z,94267.59
2022-11-22T04:27:03.995Z,94261.59
2022-11-22T04:29:30.668Z,94269.13
2022-11-22T04:32:15.840Z,94255.88
2022-11-22T04:34:42.684Z,94255.91
2022-11-22T04:37:09.094Z,94256.06
2022-11-22T04:39:35.498Z,94261.56
2022-11-22T04:42:20.908Z,94259.78
2022-11-22T04:44:47.331Z,94269.78
2022-11-22T04:47:35.705Z,94269.03
2022-11-22T04:50:03.612Z,94273.53
2022-11-22T04:52:49.201Z,94271.34
2022-11-22T04:55:15.665Z,94277.84
2022-11-22T04:57:42.449Z,94274.13
2022-11-22T05:00:09.894Z,94276.41
2022-11-22T05:02:36.674Z,94280.59
2022-11-22T05:05:03.097Z,94291.34
2022-11-22T05:07:30.021Z,94283.28
2022-11-22T05:09:56.386Z,94288.31
2022-11-22T05:12:22.743Z,94298.59
2022-11-22T05:14:49.566Z,94295.38
2022-11-22T05:17:15.967Z,94308.28
2022-11-22T05:19:47.891Z,94308.69
2022-11-22T05:22:15.735Z,94313.56
2022-11-22T05:24:42.102Z,94319.94
2022-11-22T05:27:08.979Z,94318.03
2022-11-22T05:29:35.496Z,94312.78
2022-11-22T05:32:02.423Z,94318.22
2022-11-22T05:34:28.822Z,94312.16
2022-11-22T05:36:55.658Z,94308.09
2022-11-22T05:39:22.035Z,94315.94
2022-11-22T05:41:56.264Z,94316.34
2022-11-22T05:44:23.916Z,94325.97
2022-11-22T05:46:51.828Z,94339.34
2022-11-22T05:49:18.728Z,94337.31
2022-11-22T05:51:45.141Z,94342.19
2022-11-22T05:54:11.632Z,94343.19
2022-11-22T05:56:38.822Z,94346.63
2022-11-22T05:59:05.648Z,94358.69
2022-11-22T06:01:32.508Z,94366.53
2022-11-22T06:03:58.865Z,94362.13
2022-11-22T06:06:25.799Z,94360.91
2022-11-22T06:08:52.730Z,94356.06
2022-11-22T06:11:22.196Z,94358.09
2022-11-22T06:13:50.986Z,94357.06
2022-11-22T06:16:18.225Z,94360.28
2022-11-22T06:18:44.872Z,94360.91
2022-11-22T06:21:17.434Z,94359.91
2022-11-22T06:23:44.169Z,94355.63
2022-11-22T06:26:15.804Z,94359.28
2022-11-22T06:28:43.038Z,94367.34
2022-11-22T06:31:12.316Z,94370.34
2022-11-22T06:33:39.709Z,94377.81
2022-11-22T06:36:11.864Z,94377.38
2022-11-22T06:38:39.337Z,94375.34
2022-11-22T06:41:08.441Z,94391.47
2022-11-22T06:43:36.794Z,94383.59
2022-11-22T06:46:04.741Z,94385.03
2022-11-22T06:48:33.710Z,94395.72
2022-11-22T06:51:18.316Z,94403.72
2022-11-22T06:53:48.184Z,94405.13
2022-11-22T06:56:18.225Z,94406.13
2022-11-22T06:58:45.193Z,94408.13
2022-11-22T07:01:14.775Z,94424.44
2022-11-22T07:03:42.678Z,94430.69
2022-11-22T07:06:10.897Z,94443.78
2022-11-22T07:08:37.951Z,94446.38
2022-11-22T07:11:08.070Z,94452.41
2022-11-22T07:13:34.866Z,94444.28
2022-11-22T07:16:02.618Z,94448.69
2022-11-22T07:18:29.822Z,94459.53
2022-11-22T07:21:10.945Z,94453.22
2022-11-22T07:23:40.605Z,94464.97
2022-11-22T07:26:06.933Z,94461.91
2022-11-22T07:28:33.351Z,94470.31
2022-11-22T07:31:02.055Z,94470.09
2022-11-22T07:33:28.912Z,94466.28
2022-11-22T07:35:55.406Z,94469.13
2022-11-22T07:38:22.102Z,94465.31
2022-11-22T07:40:48.558Z,94475.25
2022-11-22T07:43:15.185Z,94483.00
2022-11-22T07:45:41.816Z,94481.88
2022-11-22T07:48:08.476Z,94471.63
2022-11-22T07:50:34.842Z,94489.38
2022-11-22T07:53:01.316Z,94476.84
2022-11-22T07:55:28.094Z,94476.38
2022-11-22T07:57:54.859Z,94483.25
2022-11-22T08:00:21.305Z,94483.91
2022-11-22T08:02:47.632Z,94488.22
2022-11-22T08:05:14.409Z,94488.44
2022-11-22T08:07:52.449Z,94488.69
2022-11-22T08:10:19.683Z,94485.25
2022-11-22T08:12:46.626Z,94486.06
2022-11-22T08:15:15.008Z,94488.06
2022-11-22T08:17:42.135Z,94484.25
2022-11-22T08:20:09.224Z,94480.09
2022-11-22T08:22:40.666Z,94483.31
2022-11-22T08:25:12.713Z,94486.16
2022-11-22T08:27:41.587Z,94484.47
2022-11-22T08:30:09.729Z,94492.00
2022-11-22T08:32:36.303Z,94490.88
2022-11-22T08:35:02.954Z,94501.72
2022-11-22T08:37:29.673Z,94489.59
2022-11-22T08:39:56.255Z,94491.03
2022-11-22T08:42:23.390Z,94483.97
2022-11-22T08:44:50.546Z,94489.44
2022-11-22T08:47:17.245Z,94482.94
2022-11-22T08:49:43.579Z,94477.31
2022-11-22T08:52:09.918Z,94474.25
2022-11-22T08:54:38.125Z,94485.03
2022-11-22T08:57:05.065Z,94473.75
2022-11-22T08:59:31.672Z,94477.63
2022-11-22T09:01:58.643Z,94472.56
2022-11-22T09:04:25.020Z,94478.13
2022-11-22T09:09:38.439Z,94491.00
2022-11-22T09:12:05.387Z,94498.25
2022-11-22T09:14:31.719Z,94496.56
2022-11-22T09:16:58.390Z,94503.13
2022-11-22T09:19:24.819Z,94506.66
2022-11-22T09:21:51.158Z,94516.00
2022-11-22T09:24:17.602Z,94516.47
2022-11-22T09:26:43.982Z,94514.88
2022-11-22T09:29:10.837Z,94523.91
2022-11-22T09:31:37.529Z,94527.28
2022-11-22T09:34:03.921Z,94530.38
2022-11-22T09:36:31.502Z,94529.75
2022-11-22T09:38:57.861Z,94533.72
2022-11-22T09:41:46.269Z,94544.56
2022-11-22T09:44:27.833Z,94541.41
2022-11-22T09:47:09.725Z,94550.31
2022-11-22T09:49:38.978Z,94551.56
2022-11-22T09:52:11.136Z,94557.63
2022-11-22T09:54:44.355Z,94553.69
2022-11-22T09:57:19.146Z,94566.59
2022-11-22T09:59:51.640Z,94568.97
2022-11-22T10:02:25.979Z,94568.09
2022-11-22T10:04:57.934Z,94565.00
2022-11-22T10:07:40.474Z,94572.75
2022-11-22T10:10:15.460Z,94572.31
2022-11-22T10:13:00.045Z,94567.53
2022-11-22T10:15:44.214Z,94569.81
2022-11-22T10:18:34.651Z,94578.00
2022-11-22T10:21:01.118Z,94571.00
2022-11-22T10:23:27.753Z,94587.09
2022-11-22T10:26:06.247Z,94590.66
2022-11-22T10:28:37.055Z,94585.31
2022-11-22T10:31:09.726Z,94583.13
2022-11-22T10:33:52.209Z,94583.34
2022-11-22T10:36:43.059Z,94576.84
2022-11-22T10:39:39.983Z,94582.91
2022-11-22T10:42:09.930Z,94592.13
2022-11-22T10:44:59.481Z,94579.44
2022-11-22T10:47:34.921Z,94580.84
2022-11-22T10:50:19.898Z,94581.34
2022-11-22T10:53:07.369Z,94590.16
2022-11-22T10:55:47.577Z,94592.03
2022-11-22T10:58:33.259Z,94588.53
2022-11-22T11:01:22.812Z,94583.16
2022-11-22T11:03:54.840Z,94579.97
2022-11-22T11:07:11.032Z,94591.50
2022-11-22T11:12:42.989Z,94578.09
2022-11-22T11:15:23.254Z,94577.91
2022-11-22T11:17:55.738Z,94573.66
2022-11-22T11:20:48.610Z,94558.34
2022-11-22T11:23:16.063Z,94563.63
2022-11-22T11:25:47.648Z,94555.28
2022-11-22T11:28:27.045Z,94549.19
2022-11-22T11:31:07.814Z,94547.47
2022-11-22T11:33:39.511Z,94550.59
2022-11-22T11:36:07.988Z,94552.53
2022-11-22T11:38:42.393Z,94551.19
2022-11-22T11:41:28.463Z,94537.06
2022-11-22T11:44:04.210Z,94545.66
2022-11-22T11:46:36.742Z,94539.03
2022-11-22T11:49:14.430Z,94535.03
2022-11-22T11:51:46.614Z,94531.25
2022-11-22T11:54:19.985Z,94521.53
2022-11-22T11:56:55.629Z,94528.72
2022-11-22T11:59:25.373Z,94516.78
2022-11-22T12:02:13.715Z,94514.59
2022-11-22T12:05:00.620Z,94522.34
2022-11-22T12:07:33.966Z,94525.88
2022-11-22T12:10:01.355Z,94531.63
2022-11-22T12:12:42.446Z,94525.88
2022-11-22T12:15:26.069Z,94529.69
2022-11-22T12:18:04.673Z,94528.06
2022-11-22T12:21:13.755Z,94534.84
2022-11-22T12:23:51.153Z,94519.84
2022-11-22T12:26:18.447Z,94516.97
2022-11-22T12:28:44.986Z,94516.50
2022-11-22T12:31:23.963Z,94506.66
2022-11-22T12:33:54.733Z,94512.13
2022-11-22T12:36:31.213Z,94509.03
2022-11-22T12:39:01.709Z,94502.28
2022-11-22T12:41:30.071Z,94505.16
2022-11-22T12:44:06.893Z,94509.00
2022-11-22T12:46:44.761Z,94500.38
2022-11-22T12:49:35.308Z,94502.41
2022-11-22T12:52:24.309Z,94501.59
2022-11-22T12:55:05.213Z,94506.28
2022-11-22T12:57:43.573Z,94501.34
2022-11-22T13:00:18.750Z,94500.53
2022-11-22T13:03:02.014Z,94499.84
2022-11-22T13:05:34.119Z,94499.16
2022-11-22T13:08:14.391Z,94510.72
2022-11-22T13:10:56.371Z,94508.56
2022-11-22T13:13:27.802Z,94506.34
2022-11-22T13:15:57.401Z,94499.94
2022-11-22T13:18:31.326Z,94498.31
2022-11-22T13:21:35.166Z,94499.81
2022-11-22T13:24:17.073Z,94513.31
2022-11-22T13:27:05.250Z,94515.47
2022-11-22T13:29:34.929Z,94517.53
2022-11-22T13:32:13.243Z,94515.13
2022-11-22T13:34:42.361Z,94511.81
2022-11-22T13:37:15.314Z,94507.38
2022-11-22T13:39:48.826Z,94507.91
2022-11-22T13:42:19.701Z,94508.25
2022-11-22T13:44:55.346Z,94507.63
2022-11-22T13:47:35.444Z,94508.09
2022-11-22T13:50:01.803Z,94508.53
2022-11-22T13:52:30.910Z,94517.53
2022-11-22T13:55:01.677Z,94518.78
2022-11-22T13:57:41.535Z,94524.50
2022-11-22T14:00:17.429Z,94525.53
2022-11-22T14:02:49.309Z,94520.69
2022-11-22T14:05:23.133Z,94531.09
2022-11-22T14:07:51.648Z,94524.28
2022-11-22T14:10:33.061Z,94523.13
2022-11-22T14:12:59.577Z,94517.63
2022-11-22T14:15:54.804Z,94521.50
2022-11-22T14:18:33.997Z,94510.19
2022-11-22T14:21:25.955Z,94511.94
2022-11-22T14:24:10.600Z,94510.31
2022-11-22T14:26:58.999Z,94507.53
2022-11-22T14:29:43.780Z,94508.59
2022-11-22T14:32:20.817Z,94513.47
2022-11-22T14:35:05.261Z,94511.97
2022-11-22T14:37:32.176Z,94515.44
2022-11-22T14:40:02.321Z,94518.53
2022-11-22T14:42:38.197Z,94529.13
2022-11-22T14:45:10.414Z,94527.13
2022-11-22T14:47:44.418Z,94528.19
2022-11-22T14:50:30.338Z,94525.47
2022-11-22T14:52:59.881Z,94533.28
2022-11-22T14:55:31.486Z,94530.66
2022-11-22T14:58:04.519Z,94542.78
2022-11-22T15:01:00.562Z,94536.88
2022-11-22T15:03:41.631Z,94542.25
2022-11-22T15:09:09.902Z,94546.28
2022-11-22T15:09:48.818Z,94553.97
2022-11-22T15:13:03.364Z,94560.06
2022-11-22T15:59:41.437Z,94598.84
2022-11-22T16:02:18.033Z,94592.19
2022-11-22T16:06:07.071Z,94599.53
2022-11-22T16:07:48.867Z,94596.75
2022-11-22T16:10:25.961Z,94605.03
2022-11-22T16:12:53.551Z,94609.28
2022-11-22T16:15:36.123Z,94613.34
2022-11-22T16:18:10.550Z,94606.53
2022-11-22T16:20:39.098Z,94607.31
2022-11-22T16:23:13.842Z,94609.94
2022-11-22T16:25:45.694Z,94604.06
2022-11-22T16:28:26.783Z,94597.16
2022-11-22T16:30:55.593Z,94601.97
2022-11-22T16:33:23.018Z,94603.16
2022-11-22T16:35:58.010Z,94608.78
2022-11-22T16:38:25.243Z,94613.03
2022-11-22T16:40:53.452Z,94602.16
2022-11-22T16:43:22.642Z,94612.41
2022-11-22T16:45:50.264Z,94607.94
2022-11-22T16:48:31.678Z,94605.75
2022-11-22T16:51:11.880Z,94593.81
2022-11-22T16:53:44.674Z,94593.78
2022-11-22T16:56:22.994Z,94593.28
2022-11-22T16:58:50.940Z,94603.00
2022-11-22T17:01:20.968Z,94607.75
2022-11-22T17:03:49.808Z,94609.41
2022-11-22T17:06:18.937Z,94617.91
2022-11-22T17:08:47.066Z,94616.47
2022-11-22T17:11:15.778Z,94625.13
2022-11-22T17:13:42.735Z,94628.56
2022-11-22T17:16:10.454Z,94627.53
2022-11-22T17:18:37.993Z,94618.06
2022-11-22T17:21:21.328Z,94630.38
2022-11-22T17:23:49.378Z,94629.75
2022-11-22T17:26:15.851Z,94629.75
2022-11-22T17:28:42.590Z,94640.66
2022-11-22T17:31:12.455Z,94646.34
2022-11-22T17:33:38.765Z,94643.06
2022-11-22T17:36:06.696Z,94647.50
2022-11-22T17:38:33.002Z,94650.53
2022-11-22T17:41:00.147Z,94649.75
2022-11-22T17:43:26.894Z,94649.31
2022-11-22T17:45:53.268Z,94652.56
2022-11-22T17:48:19.641Z,94652.78
2022-11-22T17:50:46.331Z,94654.81
2022-11-22T17:53:12.641Z,94663.09
2022-11-22T17:56:02.808Z,94649.44
2022-11-22T17:58:25.605Z,94665.22
2022-11-22T18:00:51.923Z,94663.63
2022-11-22T18:03:18.259Z,94664.41
2022-11-22T18:05:44.771Z,94659.38
2022-11-22T18:08:11.625Z,94672.06
2022-11-22T18:10:38.291Z,94668.03
2022-11-22T18:13:20.756Z,94668.22
2022-11-22T18:15:52.373Z,94663.97
2022-11-22T18:18:48.575Z,94666.00
2022-11-22T18:21:14.066Z,94674.88
2022-11-22T18:23:43.774Z,94682.97
2022-11-22T18:29:35.183Z,94678.91
2022-11-22T18:31:52.086Z,94679.88
2022-11-22T18:34:19.618Z,94683.13
2022-11-22T18:37:03.956Z,94688.41
2022-11-22T18:39:36.344Z,94674.72
2022-11-22T18:42:05.765Z,94680.16
2022-11-22T18:44:32.749Z,94680.16
2022-11-22T18:46:59.488Z,94680.19
2022-11-22T18:49:25.843Z,94685.81
2022-11-22T18:51:52.264Z,94685.44
2022-11-22T18:54:20.079Z,94692.28
2022-11-22T18:56:46.405Z,94688.63
2022-11-22T18:59:13.184Z,94696.28
2022-11-22T19:01:41.852Z,94703.50
2022-11-22T19:04:11.677Z,94703.91
2022-11-22T19:06:38.007Z,94708.31
2022-11-22T19:09:04.804Z,94706.28
2022-11-22T19:11:34.225Z,94706.06
2022-11-22T19:14:00.975Z,94708.41
2022-11-22T19:16:30.789Z,94706.53
2022-11-22T19:18:58.323Z,94716.19
2022-11-22T19:21:27.186Z,94712.00
2022-11-22T19:23:54.367Z,94717.00
2022-11-22T19:26:22.667Z,94723.00
2022-11-22T19:28:50.913Z,94715.28
2022-11-22T19:31:19.502Z,94717.63
2022-11-22T19:33:46.595Z,94718.00
2022-11-22T19:36:15.793Z,94720.81
2022-11-22T19:38:42.575Z,94724.84
2022-11-22T19:41:18.263Z,94723.69
2022-11-22T19:43:45.110Z,94725.72
2022-11-22T19:46:12.113Z,94728.19
2022-11-22T19:48:43.713Z,94718.16
2022-11-22T19:51:14.667Z,94727.59
2022-11-22T19:53:44.969Z,94733.06
2022-11-22T19:56:18.917Z,94732.13
2022-11-22T19:58:56.519Z,94730.09
2022-11-22T20:01:25.949Z,94726.50
2022-11-22T20:03:54.441Z,94723.81
2022-11-22T20:06:21.302Z,94733.88
2022-11-22T20:08:47.610Z,94734.25
2022-11-22T20:11:15.961Z,94733.47
2022-11-22T20:13:45.782Z,94739.09
2022-11-22T20:16:15.544Z,94738.03
2022-11-22T20:18:42.324Z,94736.41
2022-11-22T20:21:10.942Z,94742.22
2022-11-22T20:23:38.268Z,94745.72
2022-11-22T20:26:07.117Z,94743.13
2022-11-22T20:28:33.765Z,94744.94
2022-11-22T20:31:17.881Z,94741.66
2022-11-22T20:33:50.007Z,94736.19
2022-11-22T20:36:18.751Z,94739.41
2022-11-22T20:38:46.533Z,94737.75
2022-11-22T20:41:14.581Z,94744.75
2022-11-22T20:43:41.410Z,94736.91
2022-11-22T20:46:10.137Z,94743.78
2022-11-22T20:48:38.834Z,94740.16
2022-11-22T20:51:07.664Z,94739.75
2022-11-22T20:53:34.429Z,94733.06
2022-11-22T20:56:01.802Z,94732.63
2022-11-22T20:58:28.773Z,94728.69
2022-11-22T21:00:56.832Z,94734.47
2022-11-22T21:03:24.904Z,94741.03
2022-11-22T21:05:53.789Z,94743.38
2022-11-22T21:08:21.558Z,94742.75
2022-11-22T21:10:48.322Z,94745.75
2022-11-22T21:13:14.900Z,94749.72
2022-11-22T21:15:42.050Z,94753.38
2022-11-22T21:18:24.608Z,94767.28
2022-11-22T21:20:51.680Z,94768.53
2022-11-22T21:23:18.021Z,94766.75
2022-11-22T21:25:44.350Z,94782.88
2022-11-22T21:28:10.998Z,94787.50
2022-11-22T21:30:37.301Z,94792.97
2022-11-22T21:33:03.693Z,94788.78
2022-11-22T21:35:30.531Z,94792.63
2022-11-22T21:37:56.865Z,94793.44
2022-11-22T21:40:23.156Z,94794.88
2022-11-22T21:42:49.488Z,94796.72
2022-11-22T21:45:15.825Z,94803.22
2022-11-22T21:47:42.569Z,94804.66
2022-11-22T21:50:11.791Z,94798.84
2022-11-22T21:52:38.346Z,94804.91
2022-11-22T21:55:05.640Z,94804.22
2022-11-22T21:57:31.966Z,94800.94
2022-11-22T21:59:58.278Z,94788.81
2022-11-22T22:02:24.630Z,94789.56
2022-11-22T22:04:50.987Z,94796.38
2022-11-22T22:07:36.600Z,94797.25
2022-11-22T22:10:05.556Z,94802.56
2022-11-22T22:12:31.946Z,94807.66
2022-11-22T22:14:58.261Z,94811.16
2022-11-22T22:17:24.949Z,94804.16
2022-11-22T22:19:52.686Z,94807.69
2022-11-22T22:22:19.017Z,94802.59
2022-11-22T22:24:45.316Z,94805.09
2022-11-22T22:27:11.686Z,94813.88
2022-11-22T22:29:38.359Z,94811.97
2022-11-22T22:32:10.252Z,94809.75
2022-11-22T22:34:36.980Z,94808.03
2022-11-22T22:37:03.856Z,94810.22
2022-11-22T22:39:30.521Z,94821.97
2022-11-22T22:41:57.190Z,94823.34
2022-11-22T22:44:24.013Z,94821.28
2022-11-22T22:46:50.310Z,94826.22
2022-11-22T22:49:16.655Z,94823.91
2022-11-22T22:51:43.398Z,94828.41
2022-11-22T22:54:10.216Z,94817.97
2022-11-22T22:56:36.607Z,94824.69
2022-11-22T22:59:05.513Z,94822.00
2022-11-22T23:01:31.909Z,94828.28
2022-11-22T23:04:00.238Z,94825.25
2022-11-22T23:06:37.630Z,94818.38
2022-11-22T23:09:07.473Z,94829.00
2022-11-22T23:11:53.377Z,94838.72
2022-11-22T23:14:23.796Z,94837.97
2022-11-22T23:16:54.500Z,94835.53
2022-11-22T23:19:24.417Z,94841.56
2022-11-22T23:21:50.802Z,94833.75
2022-11-22T23:24:17.335Z,94836.06
2022-11-22T23:26:44.170Z,94839.94
2022-11-22T23:29:10.645Z,94834.09
2022-11-22T23:31:36.957Z,94835.34
2022-11-22T23:34:03.910Z,94840.66
2022-11-22T23:36:30.365Z,94853.41
2022-11-22T23:38:56.702Z,94849.16
2022-11-22T23:41:24.880Z,94857.34
2022-11-22T23:43:53.723Z,94861.94
2022-11-22T23:46:20.603Z,94865.59
2022-11-22T23:48:52.523Z,94853.63
2022-11-22T23:51:19.553Z,94864.81
2022-11-22T23:53:46.259Z,94856.97
2022-11-22T23:56:19.125Z,94861.03
2022-11-22T23:58:48.492Z,94859.88
